Time;durP1;ratioP1;P1;durP2;ratioP2;P2;SDS_P1;SDS_P2;PMS_P1;PMS_P2;Temp;Humidity;BMP_temperature;BMP_pressure;BME280_temperature;BME280_humidity;BME280_pressure;Samples;Min_cycle;Max_cycle;Signal;HPM_P1;HPM_P2
2023/05/26 00:01:20;;;;;;;27.50;5.13;;;;;;;;;;5095100;27;20143;-72
2023/05/26 00:03:48;;;;;;;34.80;5.72;;;;;;;;;;5092576;27;20055;-72
2023/05/26 00:06:16;;;;;;;22.30;5.40;;;;;;;;;;5092981;27;20050;-72
2023/05/26 00:08:42;;;;;;;27.17;5.40;;;;;;;;;;5095658;27;20044;-72
2023/05/26 00:11:08;;;;;;;26.83;5.68;;;;;;;;;;5093406;27;20055;-72
2023/05/26 00:13:35;;;;;;;28.48;4.88;;;;;;;;;;5095099;27;20059;-72
2023/05/26 00:16:01;;;;;;;25.77;4.70;;;;;;;;;;5094991;27;20067;-72
2023/05/26 00:18:27;;;;;;;30.20;5.75;;;;;;;;;;5100353;27;20123;-72
2023/05/26 00:20:53;;;;;;;26.80;5.18;;;;;;;;;;5113297;27;20655;-72
2023/05/26 00:23:20;;;;;;;30.85;5.45;;;;;;;;;;5102462;28;20107;-72
2023/05/26 00:25:46;;;;;;;28.35;6.78;;;;;;;;;;5101011;28;20054;-72
2023/05/26 00:28:12;;;;;;;33.55;7.22;;;;;;;;;;5097497;27;20134;-72
2023/05/26 00:30:38;;;;;;;25.67;5.78;;;;;;;;;;5102032;27;20136;-72
2023/05/26 00:33:05;;;;;;;25.85;5.53;;;;;;;;;;5101874;27;20051;-72
2023/05/26 00:35:31;;;;;;;25.13;5.63;;;;;;;;;;5099811;27;20086;-72
2023/05/26 00:37:57;;;;;;;27.52;6.15;;;;;;;;;;5134319;27;20059;-72
2023/05/26 00:40:23;;;;;;;24.15;4.55;;;;;;;;;;5097784;28;20528;-72
2023/05/26 00:42:49;;;;;;;32.50;6.43;;;;;;;;;;5100661;27;20130;-72
2023/05/26 00:45:15;;;;;;;27.70;6.28;;;;;;;;;;5114225;27;20048;-72
2023/05/26 00:47:42;;;;;;;26.95;5.80;;;;;;;;;;5092670;28;20040;-72
2023/05/26 00:50:12;;;;;;;30.00;5.75;;;;;;;;;;5092120;27;20148;-72
2023/05/26 00:52:40;;;;;;;33.00;6.38;;;;;;;;;;5088350;27;20099;-72
2023/05/26 00:55:06;;;;;;;24.20;4.50;;;;;;;;;;5090821;27;20139;-72
2023/05/26 00:57:33;;;;;;;23.63;5.38;;;;;;;;;;5094637;27;20146;-72
2023/05/26 00:59:59;;;;;;;29.80;6.25;;;;;;;;;;5096578;27;20552;-72
2023/05/26 01:02:27;;;;;;;27.98;5.95;;;;;;;;;;5094916;27;20039;-72
2023/05/26 01:04:53;;;;;;;23.85;5.72;;;;;;;;;;5083679;28;20112;-72
2023/05/26 01:07:20;;;;;;;29.10;5.55;;;;;;;;;;5106808;27;20406;-72
2023/05/26 01:09:47;;;;;;;26.52;6.55;;;;;;;;;;5103489;27;20052;-72
2023/05/26 01:12:15;;;;;;;24.88;6.20;;;;;;;;;;5091775;28;20039;-72
2023/05/26 01:14:54;;;;;;;23.92;5.70;;;;;;;;;;5092390;28;20143;-72
2023/05/26 01:17:21;;;;;;;29.00;6.35;;;;;;;;;;5093828;28;20056;-72
2023/05/26 01:20:05;;;;;;;28.67;6.30;;;;;;;;;;5096285;28;20273;-72
2023/05/26 01:22:52;;;;;;;30.27;5.53;;;;;;;;;;5104593;27;20101;-72
2023/05/26 01:25:36;;;;;;;27.65;6.03;;;;;;;;;;5088662;28;20470;-72
2023/05/26 01:28:08;;;;;;;33.28;5.78;;;;;;;;;;5094332;28;20074;-72
2023/05/26 01:30:35;;;;;;;18.08;5.13;;;;;;;;;;5091212;28;20491;-72
2023/05/26 01:33:01;;;;;;;33.78;5.03;;;;;;;;;;5095840;28;20044;-72
2023/05/26 01:35:28;;;;;;;25.85;4.75;;;;;;;;;;5105590;27;20043;-72
2023/05/26 01:37:54;;;;;;;27.25;4.93;;;;;;;;;;5093484;28;21832;-72
2023/05/26 01:40:21;;;;;;;29.77;5.55;;;;;;;;;;5093238;28;20051;-72
2023/05/26 01:42:56;;;;;;;25.33;6.13;;;;;;;;;;5090252;28;21117;-72
2023/05/26 01:45:24;;;;;;;18.05;4.05;;;;;;;;;;5089745;28;20047;-72
2023/05/26 01:47:52;;;;;;;27.70;5.40;;;;;;;;;;5124170;27;20135;-72
2023/05/26 01:50:21;;;;;;;32.78;6.50;;;;;;;;;;5096063;27;20047;-72
2023/05/26 01:52:49;;;;;;;28.42;5.07;;;;;;;;;;5095677;27;20047;-72
2023/05/26 01:55:15;;;;;;;40.47;6.63;;;;;;;;;;5096028;27;20048;-72
2023/05/26 01:57:42;;;;;;;35.08;6.18;;;;;;;;;;5099708;27;20136;-72
2023/05/26 02:00:09;;;;;;;28.00;5.93;;;;;;;;;;5096422;27;20055;-72
2023/05/26 02:02:35;;;;;;;25.42;5.95;;;;;;;;;;5129337;27;20058;-72
2023/05/26 02:05:02;;;;;;;24.05;5.00;;;;;;;;;;5094007;27;20048;-72
2023/05/26 02:07:29;;;;;;;37.33;7.05;;;;;;;;;;5109157;27;20504;-72
2023/05/26 02:09:55;;;;;;;28.75;6.88;;;;;;;;;;5125539;27;20475;-72
2023/05/26 02:12:21;;;;;;;23.15;5.15;;;;;;;;;;5093907;27;20061;-72
2023/05/26 02:14:47;;;;;;;25.05;4.47;;;;;;;;;;5095306;27;20446;-72
2023/05/26 02:17:17;;;;;;;30.75;5.28;;;;;;;;;;5100873;27;21432;-72
2023/05/26 02:19:43;;;;;;;37.00;5.75;;;;;;;;;;5085603;27;20104;-72
2023/05/26 02:22:09;;;;;;;29.15;5.80;;;;;;;;;;5115182;27;20048;-72
2023/05/26 02:24:35;;;;;;;25.70;5.53;;;;;;;;;;5105826;27;20047;-72
2023/05/26 02:27:01;;;;;;;32.30;5.45;;;;;;;;;;5102771;27;20184;-72
2023/05/26 02:29:27;;;;;;;23.13;5.32;;;;;;;;;;5098890;27;20044;-72
2023/05/26 02:31:53;;;;;;;38.25;6.93;;;;;;;;;;5105600;27;20043;-72
2023/05/26 02:34:20;;;;;;;23.17;4.32;;;;;;;;;;5104417;27;20394;-72
2023/05/26 02:36:46;;;;;;;32.65;5.25;;;;;;;;;;5107183;27;20070;-72
2023/05/26 02:39:12;;;;;;;20.58;5.15;;;;;;;;;;5100125;27;20139;-72
2023/05/26 02:41:38;;;;;;;30.70;5.93;;;;;;;;;;5102973;27;20044;-72
2023/05/26 02:44:05;;;;;;;26.67;5.53;;;;;;;;;;5104366;27;20039;-72
2023/05/26 02:46:31;;;;;;;27.50;4.95;;;;;;;;;;5105571;27;20432;-72
2023/05/26 02:49:00;;;;;;;35.85;5.28;;;;;;;;;;5106610;27;20361;-72
2023/05/26 02:51:26;;;;;;;37.90;5.80;;;;;;;;;;5105953;27;20047;-72
2023/05/26 02:53:52;;;;;;;37.72;5.53;;;;;;;;;;5095868;27;20043;-72
2023/05/26 02:56:19;;;;;;;34.13;5.68;;;;;;;;;;5094061;27;20043;-72
2023/05/26 02:58:45;;;;;;;24.50;4.55;;;;;;;;;;5098412;27;20053;-72
2023/05/26 03:01:11;;;;;;;32.53;6.25;;;;;;;;;;5107082;27;20040;-72
2023/05/26 03:03:37;;;;;;;36.67;5.28;;;;;;;;;;5091115;27;20059;-72
2023/05/26 03:06:04;;;;;;;27.98;5.82;;;;;;;;;;5094727;27;20078;-72
2023/05/26 03:08:31;;;;;;;28.90;5.35;;;;;;;;;;5096755;28;20410;-72
2023/05/26 03:10:57;;;;;;;30.52;5.10;;;;;;;;;;5092280;27;20069;-72
2023/05/26 03:13:23;;;;;;;22.60;5.25;;;;;;;;;;5091458;27;20040;-72
2023/05/26 03:15:49;;;;;;;27.88;6.07;;;;;;;;;;5098998;27;20047;-72
2023/05/26 03:18:16;;;;;;;26.98;5.82;;;;;;;;;;5092127;27;20094;-72
2023/05/26 03:20:46;;;;;;;27.65;6.13;;;;;;;;;;5097706;27;20047;-72
2023/05/26 03:23:14;;;;;;;38.67;6.18;;;;;;;;;;5099994;27;20621;-72
2023/05/26 03:25:40;;;;;;;31.50;5.40;;;;;;;;;;5094212;27;20069;-72
2023/05/26 03:28:07;;;;;;;28.35;5.72;;;;;;;;;;5128213;27;20239;-72
2023/05/26 03:30:33;;;;;;;26.80;5.13;;;;;;;;;;5095472;27;20047;-72
2023/05/26 03:33:01;;;;;;;24.63;5.63;;;;;;;;;;5092589;27;20127;-72
2023/05/26 03:35:27;;;;;;;25.70;5.07;;;;;;;;;;5094483;27;20043;-72
2023/05/26 03:37:53;;;;;;;26.35;5.82;;;;;;;;;;5093638;27;20399;-72
2023/05/26 03:40:19;;;;;;;31.02;5.20;;;;;;;;;;5079227;28;20100;-72
2023/05/26 03:42:45;;;;;;;23.92;4.85;;;;;;;;;;5079610;28;20434;-72
2023/05/26 03:45:12;;;;;;;28.83;5.82;;;;;;;;;;5095613;28;20062;-72
2023/05/26 03:47:38;;;;;;;26.55;5.90;;;;;;;;;;5098773;27;20047;-72
2023/05/26 03:50:05;;;;;;;27.95;5.20;;;;;;;;;;5091060;27;20050;-72
2023/05/26 03:52:32;;;;;;;31.92;5.13;;;;;;;;;;5094020;28;20047;-72
2023/05/26 03:54:58;;;;;;;20.80;5.18;;;;;;;;;;5095020;27;20495;-72
2023/05/26 03:57:24;;;;;;;35.70;6.97;;;;;;;;;;5105018;27;20054;-72
2023/05/26 03:59:50;;;;;;;38.38;5.38;;;;;;;;;;5092138;27;20050;-72
2023/05/26 04:02:16;;;;;;;20.52;4.70;;;;;;;;;;5112660;27;20036;-72
2023/05/26 04:04:43;;;;;;;23.73;5.78;;;;;;;;;;5123245;27;20055;-72
2023/05/26 04:07:09;;;;;;;32.05;4.68;;;;;;;;;;5092974;27;20187;-72
2023/05/26 04:09:35;;;;;;;21.02;4.15;;;;;;;;;;5095982;27;20127;-72
2023/05/26 04:12:01;;;;;;;33.05;6.43;;;;;;;;;;5091199;27;20054;-72
2023/05/26 04:14:27;;;;;;;31.38;5.78;;;;;;;;;;5092777;27;20555;-72
2023/05/26 04:16:53;;;;;;;30.20;5.90;;;;;;;;;;5100230;27;20352;-72
2023/05/26 04:19:19;;;;;;;29.17;4.97;;;;;;;;;;5116898;27;20088;-72
2023/05/26 04:21:46;;;;;;;23.52;4.88;;;;;;;;;;5103077;27;20046;-72
2023/05/26 04:24:12;;;;;;;21.33;5.03;;;;;;;;;;5101073;27;20044;-72
2023/05/26 04:26:38;;;;;;;23.48;5.20;;;;;;;;;;5100585;27;20043;-72
2023/05/26 04:29:05;;;;;;;39.42;7.00;;;;;;;;;;5101355;27;20246;-72
2023/05/26 04:31:31;;;;;;;33.70;6.25;;;;;;;;;;5102747;28;20039;-72
2023/05/26 04:33:57;;;;;;;26.60;4.82;;;;;;;;;;5101942;27;20058;-72
2023/05/26 04:36:24;;;;;;;25.60;6.75;;;;;;;;;;5103088;27;20062;-72
2023/05/26 04:38:51;;;;;;;35.10;6.50;;;;;;;;;;5101763;28;20041;-72
2023/05/26 04:41:18;;;;;;;27.40;5.32;;;;;;;;;;5102083;27;20592;-72
2023/05/26 04:43:45;;;;;;;21.98;4.55;;;;;;;;;;5101314;27;20058;-72
2023/05/26 04:46:11;;;;;;;31.88;5.78;;;;;;;;;;5094840;27;20051;-72
2023/05/26 04:48:38;;;;;;;23.67;4.57;;;;;;;;;;5103280;27;20700;-72
2023/05/26 04:51:07;;;;;;;27.50;5.57;;;;;;;;;;5103305;27;20199;-70
2023/05/26 04:53:33;;;;;;;27.85;5.70;;;;;;;;;;5092878;27;20483;-72
2023/05/26 04:56:01;;;;;;;24.83;5.35;;;;;;;;;;5087681;27;20135;-72
2023/05/26 04:58:27;;;;;;;24.40;4.53;;;;;;;;;;5095178;27;20040;-70
2023/05/26 05:00:54;;;;;;;33.88;6.93;;;;;;;;;;5101116;28;20462;-73
2023/05/26 05:03:21;;;;;;;25.20;5.57;;;;;;;;;;5102882;28;20384;-72
2023/05/26 05:05:47;;;;;;;27.75;6.78;;;;;;;;;;5126882;27;20043;-72
2023/05/26 05:08:14;;;;;;;22.80;5.05;;;;;;;;;;5130386;27;20043;-72
2023/05/26 05:10:40;;;;;;;32.75;6.30;;;;;;;;;;5095311;28;20039;-72
2023/05/26 05:13:06;;;;;;;27.23;5.35;;;;;;;;;;5094155;28;20047;-73
2023/05/26 05:15:32;;;;;;;25.95;5.97;;;;;;;;;;5097001;28;20044;-72
2023/05/26 05:17:59;;;;;;;27.65;4.68;;;;;;;;;;5097162;28;20188;-71
2023/05/26 05:20:25;;;;;;;22.88;5.00;;;;;;;;;;5097965;28;20048;-73
2023/05/26 05:22:53;;;;;;;30.75;7.28;;;;;;;;;;5099311;27;20259;-74
2023/05/26 05:25:19;;;;;;;22.90;4.03;;;;;;;;;;5097363;27;20071;-72
2023/05/26 05:27:45;;;;;;;26.90;5.30;;;;;;;;;;5110555;27;20524;-70
2023/05/26 05:30:11;;;;;;;29.40;5.47;;;;;;;;;;5100818;27;20051;-73
2023/05/26 05:32:38;;;;;;;34.78;6.22;;;;;;;;;;5108461;27;20086;-74
2023/05/26 05:35:04;;;;;;;23.98;5.90;;;;;;;;;;5095039;27;20126;-73
2023/05/26 05:37:31;;;;;;;28.15;5.15;;;;;;;;;;5102062;27;20436;-74
2023/05/26 05:39:57;;;;;;;41.05;5.95;;;;;;;;;;5104912;27;20436;-72
2023/05/26 05:42:24;;;;;;;32.50;5.75;;;;;;;;;;5109990;27;20446;-71
2023/05/26 05:44:51;;;;;;;30.77;5.47;;;;;;;;;;5108491;27;20503;-71
2023/05/26 05:47:17;;;;;;;18.98;5.07;;;;;;;;;;5110993;27;20040;-72
2023/05/26 05:49:43;;;;;;;26.10;4.95;;;;;;;;;;5115090;27;20035;-73
2023/05/26 05:52:09;;;;;;;33.50;7.07;;;;;;;;;;5117365;27;20088;-74
2023/05/26 05:54:35;;;;;;;21.75;4.18;;;;;;;;;;5118586;27;20031;-73
2023/05/26 05:57:01;;;;;;;27.75;5.25;;;;;;;;;;5108173;27;20142;-74
2023/05/26 05:59:28;;;;;;;24.65;4.90;;;;;;;;;;5109436;27;20047;-74
2023/05/26 06:01:54;;;;;;;22.30;4.95;;;;;;;;;;5117876;27;20027;-73
2023/05/26 06:04:20;;;;;;;23.30;5.95;;;;;;;;;;5110463;27;20043;-74
2023/05/26 06:06:46;;;;;;;21.05;4.40;;;;;;;;;;5106094;27;20119;-73
2023/05/26 06:09:12;;;;;;;29.58;5.30;;;;;;;;;;5119745;27;20759;-73
2023/05/26 06:11:38;;;;;;;18.38;4.38;;;;;;;;;;5108049;27;20047;-73
2023/05/26 06:14:05;;;;;;;17.63;4.78;;;;;;;;;;5108907;27;20059;-73
2023/05/26 06:16:31;;;;;;;23.70;4.72;;;;;;;;;;5104694;27;20050;-74
2023/05/26 06:18:57;;;;;;;28.08;5.05;;;;;;;;;;5105491;27;20047;-73
2023/05/26 06:21:23;;;;;;;25.42;6.18;;;;;;;;;;5087875;27;20084;-73
2023/05/26 06:23:51;;;;;;;30.17;5.47;;;;;;;;;;5105168;27;20154;-73
2023/05/26 06:26:18;;;;;;;18.88;4.32;;;;;;;;;;5106518;27;20047;-73
2023/05/26 06:28:44;;;;;;;22.63;4.45;;;;;;;;;;5101032;27;20054;-73
2023/05/26 06:31:10;;;;;;;27.33;5.63;;;;;;;;;;5107870;27;20131;-73
2023/05/26 06:33:36;;;;;;;20.88;4.35;;;;;;;;;;5103664;27;20092;-73
2023/05/26 06:36:02;;;;;;;16.75;3.70;;;;;;;;;;5106415;27;20128;-74
2023/05/26 06:38:28;;;;;;;17.15;4.22;;;;;;;;;;5109503;27;20066;-74
2023/05/26 06:40:55;;;;;;;17.92;3.47;;;;;;;;;;5105623;27;20054;-75
2023/05/26 06:43:21;;;;;;;20.95;4.10;;;;;;;;;;5108135;27;20105;-74
2023/05/26 06:45:47;;;;;;;18.80;4.55;;;;;;;;;;5107329;27;20493;-73
2023/05/26 06:48:13;;;;;;;21.80;4.05;;;;;;;;;;5102197;27;20040;-73
2023/05/26 06:50:39;;;;;;;26.17;5.85;;;;;;;;;;5107604;27;20047;-73
2023/05/26 06:53:06;;;;;;;27.65;5.43;;;;;;;;;;5106087;27;20044;-73
2023/05/26 06:55:32;;;;;;;19.30;4.60;;;;;;;;;;5104148;27;20046;-73
2023/05/26 06:57:58;;;;;;;19.38;4.30;;;;;;;;;;5134453;27;20043;-73
2023/05/26 07:00:24;;;;;;;19.65;3.97;;;;;;;;;;5103114;27;20089;-74
2023/05/26 07:02:50;;;;;;;22.65;4.07;;;;;;;;;;5104942;27;20043;-69
2023/05/26 07:05:16;;;;;;;22.48;4.30;;;;;;;;;;5108599;27;20050;-73
2023/05/26 07:07:42;;;;;;;18.17;3.88;;;;;;;;;;5105320;27;20046;-72
2023/05/26 07:10:09;;;;;;;17.75;3.25;;;;;;;;;;5111195;27;20040;-71
2023/05/26 07:12:35;;;;;;;24.48;3.92;;;;;;;;;;5110893;27;20132;-72
2023/05/26 07:15:01;;;;;;;22.20;3.90;;;;;;;;;;5105120;27;20043;-78
2023/05/26 07:17:27;;;;;;;16.20;3.55;;;;;;;;;;5133724;27;21095;-73
2023/05/26 07:19:54;;;;;;;18.45;3.33;;;;;;;;;;5101650;27;20044;-73
2023/05/26 07:22:20;;;;;;;22.08;4.28;;;;;;;;;;5104922;27;20035;-73
2023/05/26 07:24:46;;;;;;;18.33;3.83;;;;;;;;;;5107799;27;20126;-73
2023/05/26 07:27:12;;;;;;;21.38;4.55;;;;;;;;;;5105251;27;20130;-73
2023/05/26 07:29:38;;;;;;;21.90;4.47;;;;;;;;;;5101248;27;20050;-74
2023/05/26 07:32:05;;;;;;;15.80;3.90;;;;;;;;;;5106859;27;20483;-73
2023/05/26 07:34:31;;;;;;;23.85;3.20;;;;;;;;;;5103639;27;20035;-73
2023/05/26 07:36:57;;;;;;;17.33;4.15;;;;;;;;;;5135713;27;20143;-73
2023/05/26 07:39:23;;;;;;;20.17;3.70;;;;;;;;;;5112209;27;20043;-73
2023/05/26 07:41:49;;;;;;;14.70;3.75;;;;;;;;;;5103573;27;20112;-74
2023/05/26 07:44:15;;;;;;;16.95;3.63;;;;;;;;;;5105417;27;20036;-73
2023/05/26 07:46:42;;;;;;;25.27;4.32;;;;;;;;;;5094657;27;20136;-74
2023/05/26 07:49:08;;;;;;;17.73;3.35;;;;;;;;;;5109769;27;20047;-74
2023/05/26 07:51:35;;;;;;;40.08;5.22;;;;;;;;;;5108093;27;20059;-73
2023/05/26 07:54:01;;;;;;;25.08;4.97;;;;;;;;;;5112654;27;20160;-74
2023/05/26 07:56:27;;;;;;;15.85;3.83;;;;;;;;;;5109327;27;20047;-73
2023/05/26 07:58:53;;;;;;;18.25;4.25;;;;;;;;;;5108450;27;20043;-73
2023/05/26 08:01:19;;;;;;;21.05;4.20;;;;;;;;;;5105600;27;20165;-73
2023/05/26 08:03:47;;;;;;;22.65;4.57;;;;;;;;;;5105583;27;20043;-73
2023/05/26 08:06:13;;;;;;;17.33;3.70;;;;;;;;;;5095182;27;20044;-74
2023/05/26 08:08:40;;;;;;;20.33;4.07;;;;;;;;;;5110349;27;20039;-73
2023/05/26 08:11:06;;;;;;;14.88;3.47;;;;;;;;;;5115047;27;20440;-73
2023/05/26 08:13:32;;;;;;;14.48;3.55;;;;;;;;;;5106440;27;20061;-73
2023/05/26 08:15:58;;;;;;;18.67;3.95;;;;;;;;;;5104617;27;20130;-74
2023/05/26 08:18:25;;;;;;;16.52;3.47;;;;;;;;;;5105036;27;20135;-73
2023/05/26 08:20:52;;;;;;;20.38;3.95;;;;;;;;;;5106900;27;20039;-73
2023/05/26 08:23:19;;;;;;;17.70;3.75;;;;;;;;;;5106666;27;20554;-73
2023/05/26 08:25:45;;;;;;;23.90;3.38;;;;;;;;;;5106139;27;20427;-74
2023/05/26 08:28:12;;;;;;;18.45;3.53;;;;;;;;;;5104181;27;20100;-74
2023/05/26 08:30:38;;;;;;;16.13;3.60;;;;;;;;;;5106379;27;20120;-73
2023/05/26 08:33:05;;;;;;;20.88;4.32;;;;;;;;;;5109019;27;20126;-73
2023/05/26 08:35:31;;;;;;;13.23;3.28;;;;;;;;;;5110983;27;20054;-73
2023/05/26 08:37:57;;;;;;;18.98;3.33;;;;;;;;;;5114170;27;21049;-74
2023/05/26 08:40:24;;;;;;;14.75;4.43;;;;;;;;;;5095034;28;20044;-73
2023/05/26 08:42:52;;;;;;;19.15;4.80;;;;;;;;;;5103729;27;20071;-73
2023/05/26 08:45:18;;;;;;;18.13;3.72;;;;;;;;;;5112275;27;20143;-73
2023/05/26 08:47:45;;;;;;;14.80;3.60;;;;;;;;;;5104125;27;20051;-73
2023/05/26 08:50:11;;;;;;;18.05;3.75;;;;;;;;;;5104422;28;20762;-73
2023/05/26 08:52:38;;;;;;;15.38;3.20;;;;;;;;;;5110154;27;20092;-74
2023/05/26 08:55:05;;;;;;;14.77;3.40;;;;;;;;;;5102492;27;20040;-74
2023/05/26 08:57:31;;;;;;;12.10;3.30;;;;;;;;;;5109903;27;20127;-74
2023/05/26 08:59:58;;;;;;;14.60;3.65;;;;;;;;;;5105058;28;20046;-74
2023/05/26 09:02:24;;;;;;;17.42;3.78;;;;;;;;;;5102356;27;20092;-74
2023/05/26 09:04:51;;;;;;;16.35;3.78;;;;;;;;;;5106696;27;20039;-73
2023/05/26 09:07:18;;;;;;;18.98;4.30;;;;;;;;;;5095834;27;20048;-74
2023/05/26 09:09:44;;;;;;;20.50;3.88;;;;;;;;;;5104571;28;20498;-74
2023/05/26 09:12:11;;;;;;;18.75;3.45;;;;;;;;;;5110306;27;20391;-73
2023/05/26 09:14:37;;;;;;;18.92;3.92;;;;;;;;;;5106249;27;20062;-74
2023/05/26 09:17:04;;;;;;;13.25;3.45;;;;;;;;;;5105443;28;20047;-74
2023/05/26 09:19:31;;;;;;;13.27;3.33;;;;;;;;;;5110758;28;20039;-73
2023/05/26 09:22:04;;;;;;;16.55;3.58;;;;;;;;;;5102191;28;20050;-73
2023/05/26 09:24:30;;;;;;;16.07;3.33;;;;;;;;;;5102549;28;20073;-74
2023/05/26 09:26:57;;;;;;;17.88;3.75;;;;;;;;;;5103738;28;20598;-73
2023/05/26 09:29:23;;;;;;;18.48;4.07;;;;;;;;;;5099165;28;20067;-74
2023/05/26 09:31:50;;;;;;;13.27;3.40;;;;;;;;;;5103146;28;20051;-74
2023/05/26 09:34:20;;;;;;;15.38;3.88;;;;;;;;;;5105503;28;20120;-74
2023/05/26 09:36:47;;;;;;;22.05;4.95;;;;;;;;;;5112230;28;20051;-74
2023/05/26 09:39:14;;;;;;;18.70;3.75;;;;;;;;;;5109634;28;20161;-74
2023/05/26 09:41:41;;;;;;;13.30;3.22;;;;;;;;;;5104365;28;20539;-74
2023/05/26 09:44:09;;;;;;;18.95;3.88;;;;;;;;;;5108997;28;20093;-74
2023/05/26 09:46:36;;;;;;;19.60;3.75;;;;;;;;;;5104365;27;20058;-74
2023/05/26 09:49:07;;;;;;;16.83;3.95;;;;;;;;;;5109742;28;20163;-74
2023/05/26 09:51:33;;;;;;;11.88;2.90;;;;;;;;;;5106740;28;20449;-74
2023/05/26 09:54:00;;;;;;;18.05;3.50;;;;;;;;;;5104904;28;20047;-74
2023/05/26 09:56:27;;;;;;;16.30;3.50;;;;;;;;;;5104050;28;20509;-74
2023/05/26 09:58:54;;;;;;;12.15;3.45;;;;;;;;;;5106328;28;20400;-74
2023/05/26 10:01:21;;;;;;;13.15;3.50;;;;;;;;;;5114167;28;20046;-74
2023/05/26 10:03:47;;;;;;;15.75;4.03;;;;;;;;;;5104497;28;20035;-74
2023/05/26 10:06:16;;;;;;;13.43;3.28;;;;;;;;;;5104256;28;20394;-74
2023/05/26 10:08:45;;;;;;;14.55;3.35;;;;;;;;;;5106708;27;20035;-74
2023/05/26 10:11:11;;;;;;;14.85;3.67;;;;;;;;;;5105518;27;20471;-74
2023/05/26 10:13:38;;;;;;;12.13;3.28;;;;;;;;;;5108403;27;20059;-71
2023/05/26 10:16:04;;;;;;;14.05;4.40;;;;;;;;;;5111275;27;20043;-74
2023/05/26 10:18:31;;;;;;;18.92;3.90;;;;;;;;;;5107390;27;20039;-75
2023/05/26 10:20:58;;;;;;;14.27;3.70;;;;;;;;;;5099252;27;20491;-73
2023/05/26 10:23:29;;;;;;;16.48;4.55;;;;;;;;;;5101526;27;20043;-74
2023/05/26 10:26:03;;;;;;;17.30;3.97;;;;;;;;;;5106288;27;20051;-74
2023/05/26 10:28:37;;;;;;;12.23;3.47;;;;;;;;;;5103720;27;20515;-73
2023/05/26 10:31:03;;;;;;;16.35;4.07;;;;;;;;;;5104542;27;20054;-74
2023/05/26 10:33:39;;;;;;;12.27;3.83;;;;;;;;;;5103643;27;20080;-73
2023/05/26 10:36:08;;;;;;;23.60;5.10;;;;;;;;;;5104233;27;20043;-74
2023/05/26 10:38:36;;;;;;;16.27;4.05;;;;;;;;;;5105354;27;20097;-73
2023/05/26 10:41:02;;;;;;;16.40;4.53;;;;;;;;;;5106830;27;20043;-73
2023/05/26 10:43:29;;;;;;;15.77;3.55;;;;;;;;;;5101177;27;20122;-73
2023/05/26 10:45:57;;;;;;;13.98;3.30;;;;;;;;;;5110262;27;20043;-73
2023/05/26 10:48:46;;;;;;;13.85;3.60;;;;;;;;;;5111663;27;20055;-73
2023/05/26 10:51:17;;;;;;;13.60;4.15;;;;;;;;;;5125643;27;20035;-74
2023/05/26 10:53:44;;;;;;;16.90;4.00;;;;;;;;;;5102081;27;20048;-74
2023/05/26 10:56:13;;;;;;;15.05;4.15;;;;;;;;;;5115999;27;20356;-74
2023/05/26 10:58:41;;;;;;;20.05;4.20;;;;;;;;;;5110228;27;20069;-74
2023/05/26 11:01:12;;;;;;;14.93;4.40;;;;;;;;;;5109237;27;20461;-73
2023/05/26 11:03:41;;;;;;;18.27;4.25;;;;;;;;;;5145814;27;20090;-74
2023/05/26 11:06:07;;;;;;;18.10;4.18;;;;;;;;;;5113798;27;20043;-73
2023/05/26 11:08:48;;;;;;;20.92;5.43;;;;;;;;;;5106468;27;20061;-73
2023/05/26 11:11:27;;;;;;;17.67;3.70;;;;;;;;;;5104548;27;20075;-74
2023/05/26 11:13:59;;;;;;;21.00;4.78;;;;;;;;;;5112478;27;20874;-73
2023/05/26 11:16:26;;;;;;;15.95;4.60;;;;;;;;;;5105962;27;20046;-73
2023/05/26 11:18:53;;;;;;;21.67;5.82;;;;;;;;;;5111988;27;20040;-73
2023/05/26 11:21:23;;;;;;;16.20;3.90;;;;;;;;;;5107824;27;20038;-73
2023/05/26 11:23:51;;;;;;;16.17;3.63;;;;;;;;;;5105889;27;20048;-73
2023/05/26 11:26:17;;;;;;;15.90;5.13;;;;;;;;;;5110978;27;21186;-74
2023/05/26 11:28:45;;;;;;;24.42;4.60;;;;;;;;;;5102872;27;20051;-72
2023/05/26 11:31:13;;;;;;;22.67;5.28;;;;;;;;;;5106931;27;20054;-73
2023/05/26 11:33:41;;;;;;;20.38;5.68;;;;;;;;;;5111445;27;20566;-74
2023/05/26 11:36:08;;;;;;;15.10;4.28;;;;;;;;;;5111944;27;20134;-75
2023/05/26 11:38:36;;;;;;;19.52;5.03;;;;;;;;;;5113315;27;20035;-74
2023/05/26 11:41:03;;;;;;;15.27;4.15;;;;;;;;;;5108870;27;20119;-74
2023/05/26 11:43:29;;;;;;;20.48;4.82;;;;;;;;;;5112500;27;20047;-74
2023/05/26 11:45:58;;;;;;;16.10;3.90;;;;;;;;;;5115268;27;20119;-74
2023/05/26 11:48:24;;;;;;;17.77;4.45;;;;;;;;;;5123158;27;20096;-74
2023/05/26 11:50:50;;;;;;;17.17;4.43;;;;;;;;;;5118201;27;20140;-74
2023/05/26 11:53:17;;;;;;;18.05;4.30;;;;;;;;;;5107832;27;20031;-75
2023/05/26 11:55:45;;;;;;;20.38;4.70;;;;;;;;;;5111447;27;20473;-75
2023/05/26 11:58:13;;;;;;;15.65;3.90;;;;;;;;;;5127234;27;20110;-74
2023/05/26 12:00:39;;;;;;;18.45;5.00;;;;;;;;;;5111538;27;20467;-75
2023/05/26 12:03:05;;;;;;;18.48;4.90;;;;;;;;;;5100207;28;20140;-75
2023/05/26 12:05:32;;;;;;;19.83;4.63;;;;;;;;;;5102740;27;20049;-75
2023/05/26 12:08:02;;;;;;;18.33;5.15;;;;;;;;;;5104536;27;20039;-75
2023/05/26 12:10:30;;;;;;;16.83;4.70;;;;;;;;;;5112364;27;20153;-75
2023/05/26 12:12:56;;;;;;;20.70;4.80;;;;;;;;;;5106635;27;20047;-75
2023/05/26 12:15:23;;;;;;;18.42;4.72;;;;;;;;;;5103829;27;20058;-74
2023/05/26 12:17:51;;;;;;;16.10;4.60;;;;;;;;;;5108276;27;20153;-74
2023/05/26 12:20:18;;;;;;;13.32;3.20;;;;;;;;;;5117011;27;20063;-74
2023/05/26 12:22:44;;;;;;;17.33;3.97;;;;;;;;;;5107562;27;20720;-74
2023/05/26 12:25:10;;;;;;;15.73;3.92;;;;;;;;;;5111065;27;20448;-74
2023/05/26 12:27:37;;;;;;;13.18;3.97;;;;;;;;;;5105103;27;20059;-75
2023/05/26 12:30:18;;;;;;;20.25;4.90;;;;;;;;;;5102137;27;20043;-74
2023/05/26 12:32:44;;;;;;;18.25;5.28;;;;;;;;;;5101490;28;20078;-74
2023/05/26 12:35:10;;;;;;;15.88;4.75;;;;;;;;;;5094116;27;20085;-75
2023/05/26 12:37:37;;;;;;;14.75;4.07;;;;;;;;;;5099771;27;20105;-74
2023/05/26 12:40:03;;;;;;;21.63;4.93;;;;;;;;;;5101510;28;20050;-74
2023/05/26 12:42:29;;;;;;;14.70;4.55;;;;;;;;;;5102980;27;20043;-74
2023/05/26 12:44:56;;;;;;;17.52;4.38;;;;;;;;;;5121031;27;20048;-74
2023/05/26 12:47:23;;;;;;;15.07;3.35;;;;;;;;;;5106598;28;20123;-73
2023/05/26 12:49:49;;;;;;;14.57;4.35;;;;;;;;;;5106531;27;20104;-74
2023/05/26 12:52:15;;;;;;;16.85;4.35;;;;;;;;;;5110382;27;20387;-74
2023/05/26 12:54:41;;;;;;;18.75;4.43;;;;;;;;;;5107955;27;20548;-74
2023/05/26 12:57:08;;;;;;;14.98;4.00;;;;;;;;;;5106020;27;20051;-74
2023/05/26 12:59:36;;;;;;;17.00;4.45;;;;;;;;;;5105780;27;20071;-73
2023/05/26 13:02:03;;;;;;;18.45;4.22;;;;;;;;;;5102835;28;20066;-75
2023/05/26 13:04:29;;;;;;;18.55;4.95;;;;;;;;;;5109556;27;20052;-75
2023/05/26 13:06:55;;;;;;;17.73;5.15;;;;;;;;;;5104656;28;20047;-75
2023/05/26 13:09:24;;;;;;;15.07;4.00;;;;;;;;;;5113528;27;20407;-75
2023/05/26 13:11:51;;;;;;;18.27;4.18;;;;;;;;;;5105019;27;20047;-74
2023/05/26 13:14:18;;;;;;;16.35;4.35;;;;;;;;;;5120887;27;20133;-75
2023/05/26 13:16:44;;;;;;;18.55;4.25;;;;;;;;;;5118782;27;20038;-75
2023/05/26 13:19:11;;;;;;;16.17;4.25;;;;;;;;;;5119144;27;20135;-75
2023/05/26 13:21:38;;;;;;;21.48;5.35;;;;;;;;;;5113847;28;20047;-75
2023/05/26 13:24:04;;;;;;;17.20;3.97;;;;;;;;;;5111162;28;20043;-75
2023/05/26 13:26:30;;;;;;;18.80;4.00;;;;;;;;;;5112407;28;20067;-75
2023/05/26 13:28:58;;;;;;;17.50;4.30;;;;;;;;;;5114531;28;20100;-74
2023/05/26 13:31:24;;;;;;;16.38;3.90;;;;;;;;;;5115963;28;20046;-75
2023/05/26 13:33:50;;;;;;;17.67;4.45;;;;;;;;;;5113064;28;20122;-75
2023/05/26 13:36:16;;;;;;;21.92;5.05;;;;;;;;;;5116943;27;20055;-75
2023/05/26 13:38:43;;;;;;;18.05;4.65;;;;;;;;;;5114451;28;20333;-75
2023/05/26 13:41:12;;;;;;;18.55;4.40;;;;;;;;;;5102525;27;20075;-73
2023/05/26 13:43:38;;;;;;;19.77;4.75;;;;;;;;;;5106528;27;20044;-74
2023/05/26 13:46:04;;;;;;;18.75;4.13;;;;;;;;;;5112802;27;20558;-75
2023/05/26 13:48:30;;;;;;;15.90;3.83;;;;;;;;;;5103647;27;20128;-74
2023/05/26 13:50:57;;;;;;;12.75;4.25;;;;;;;;;;5108199;27;20464;-73
2023/05/26 13:53:23;;;;;;;12.43;3.80;;;;;;;;;;5106514;27;20048;-74
2023/05/26 13:55:49;;;;;;;20.33;4.22;;;;;;;;;;5106313;27;20043;-74
2023/05/26 13:58:16;;;;;;;18.05;4.63;;;;;;;;;;5107116;27;20063;-74
2023/05/26 14:00:42;;;;;;;18.95;4.72;;;;;;;;;;5108443;27;20043;-74
2023/05/26 14:03:09;;;;;;;20.05;4.78;;;;;;;;;;5109117;27;20163;-74
2023/05/26 14:05:35;;;;;;;18.30;4.43;;;;;;;;;;5122200;27;20127;-74
2023/05/26 14:08:05;;;;;;;19.90;4.38;;;;;;;;;;5120160;27;20491;-74
2023/05/26 14:10:32;;;;;;;23.05;6.22;;;;;;;;;;5119570;27;20127;-74
2023/05/26 14:12:58;;;;;;;15.48;3.78;;;;;;;;;;5117225;27;20039;-74
2023/05/26 14:15:24;;;;;;;16.48;5.38;;;;;;;;;;5117472;27;20055;-74
2023/05/26 14:17:51;;;;;;;15.85;4.50;;;;;;;;;;5103393;28;20046;-74
2023/05/26 14:20:17;;;;;;;18.30;4.50;;;;;;;;;;5102746;28;20073;-74
2023/05/26 14:22:43;;;;;;;19.13;4.50;;;;;;;;;;5123200;27;20039;-74
2023/05/26 14:25:09;;;;;;;15.25;4.35;;;;;;;;;;5121149;27;20054;-74
2023/05/26 14:27:36;;;;;;;22.60;5.78;;;;;;;;;;5118100;27;20051;-74
2023/05/26 14:30:02;;;;;;;19.13;4.38;;;;;;;;;;5114462;27;20411;-74